createdAt,value
2018-03-21T00:02:08.889Z,68.16
2018-03-21T00:04:36.594Z,67.48
2018-03-21T00:07:04.263Z,68.32
2018-03-21T00:09:32.181Z,68.05
2018-03-21T00:11:59.848Z,67.45
2018-03-21T00:14:27.503Z,68.22
2018-03-21T00:16:55.200Z,67.67
2018-03-21T00:19:22.864Z,68.19
2018-03-21T00:21:50.542Z,67.81
2018-03-21T00:24:18.215Z,67.71
2018-03-21T00:26:45.912Z,67.98
2018-03-21T00:29:13.579Z,67.67
2018-03-21T00:31:41.231Z,68.25
2018-03-21T00:34:08.908Z,68.11
2018-03-21T00:36:36.565Z,67.43
2018-03-21T00:39:04.253Z,67.11
2018-03-21T00:41:31.920Z,67.08
2018-03-21T00:43:59.636Z,66.59
2018-03-21T00:46:27.302Z,66.69
2018-03-21T00:48:54.976Z,66.56
2018-03-21T00:51:22.651Z,66.31
2018-03-21T00:53:50.311Z,66.16
2018-03-21T00:56:17.998Z,66.51
2018-03-21T00:58:45.660Z,66.38
2018-03-21T01:01:13.316Z,66.45
2018-03-21T01:03:41.001Z,66.56
2018-03-21T01:06:08.656Z,67.09
2018-03-21T01:08:36.479Z,67.05
2018-03-21T01:11:04.140Z,67.24
2018-03-21T01:13:31.816Z,66.92
2018-03-21T01:15:59.490Z,66.98
2018-03-21T01:18:27.153Z,67.76
2018-03-21T01:20:54.845Z,67.66
2018-03-21T01:23:22.522Z,67.55
2018-03-21T01:25:50.225Z,67.84
2018-03-21T01:28:17.875Z,67.77
2018-03-21T01:30:45.540Z,67.78
2018-03-21T01:33:13.227Z,67.79
2018-03-21T01:35:40.909Z,67.73
2018-03-21T01:38:08.596Z,67.58
2018-03-21T01:40:36.286Z,68.16
2018-03-21T01:43:03.991Z,67.64
2018-03-21T01:45:31.656Z,67.34
2018-03-21T01:47:59.327Z,67.61
2018-03-21T01:50:27.020Z,67.30
2018-03-21T01:53:06.363Z,67.20
2018-03-21T01:55:34.063Z,67.61
2018-03-21T01:58:01.732Z,67.69
2018-03-21T02:00:29.430Z,67.17
2018-03-21T02:02:57.097Z,67.20
2018-03-21T02:05:24.756Z,67.52
2018-03-21T02:07:52.435Z,67.87
2018-03-21T02:10:20.091Z,67.14
2018-03-21T02:12:47.887Z,67.20
2018-03-21T02:15:15.545Z,66.54
2018-03-21T02:17:43.353Z,66.83
2018-03-21T02:20:11.008Z,66.36
2018-03-21T02:22:38.675Z,66.73
2018-03-21T02:25:06.406Z,66.99
2018-03-21T02:27:34.059Z,66.65
2018-03-21T02:30:01.753Z,67.07
2018-03-21T02:32:29.418Z,67.52
2018-03-21T02:34:57.257Z,68.10
2018-03-21T02:37:24.924Z,67.53
2018-03-21T02:39:52.605Z,67.83
2018-03-21T02:42:20.301Z,67.74
2018-03-21T02:44:47.963Z,67.98
2018-03-21T02:47:15.660Z,67.75
2018-03-21T02:49:43.326Z,68.11
2018-03-21T02:52:11.040Z,67.94
2018-03-21T02:54:38.714Z,68.13
2018-03-21T02:57:07.283Z,67.87
2018-03-21T02:59:34.977Z,67.69
2018-03-21T03:02:02.700Z,67.21
2018-03-21T03:04:30.383Z,67.55
2018-03-21T03:06:58.057Z,67.45
2018-03-21T03:09:25.958Z,68.63
2018-03-21T03:11:53.632Z,68.10
2018-03-21T03:14:21.300Z,68.30
2018-03-21T03:16:48.988Z,68.03
2018-03-21T03:19:16.651Z,68.06
2018-03-21T03:21:44.331Z,68.37
2018-03-21T03:24:12.001Z,68.42
2018-03-21T03:26:39.710Z,68.57
2018-03-21T03:29:07.371Z,68.56
2018-03-21T03:31:35.033Z,68.19
2018-03-21T03:34:02.715Z,68.54
2018-03-21T03:36:30.380Z,67.93
2018-03-21T03:38:58.312Z,68.19
2018-03-21T03:41:25.978Z,68.03
2018-03-21T03:43:53.640Z,67.34
2018-03-21T03:46:21.329Z,67.27
2018-03-21T03:48:49.004Z,67.50
2018-03-21T03:51:16.843Z,67.94
2018-03-21T03:53:44.528Z,67.94
2018-03-21T03:56:12.203Z,67.09
2018-03-21T03:58:39.889Z,67.71
2018-03-21T04:01:07.552Z,67.35
2018-03-21T04:03:35.251Z,67.50
2018-03-21T04:06:02.904Z,67.27
2018-03-21T04:08:30.774Z,68.22
2018-03-21T04:10:58.448Z,67.72
2018-03-21T04:13:26.099Z,67.62
2018-03-21T04:15:53.786Z,67.69
2018-03-21T04:18:21.460Z,67.82
2018-03-21T04:20:49.151Z,67.36
2018-03-21T04:23:16.836Z,67.34
2018-03-21T04:25:44.532Z,67.64
2018-03-21T04:28:12.235Z,66.90
2018-03-21T04:30:39.896Z,66.80
2018-03-21T04:33:07.612Z,66.86
2018-03-21T04:35:35.423Z,66.37
2018-03-21T04:38:03.101Z,66.19
2018-03-21T04:40:30.761Z,66.01
2018-03-21T04:42:58.461Z,66.22
2018-03-21T04:45:26.125Z,65.61
2018-03-21T04:47:53.794Z,65.88
2018-03-21T04:50:21.477Z,66.42
2018-03-21T04:52:49.140Z,65.87
2018-03-21T04:55:16.828Z,65.78
2018-03-21T04:57:44.739Z,65.85
2018-03-21T05:00:12.612Z,66.52
2018-03-21T05:02:40.276Z,66.18
2018-03-21T05:05:07.940Z,66.54
2018-03-21T05:07:35.637Z,67.20
2018-03-21T05:10:03.310Z,66.84
2018-03-21T05:12:31.008Z,67.67
2018-03-21T05:14:58.689Z,67.55
2018-03-21T05:17:26.424Z,68.07
2018-03-21T05:19:54.086Z,68.90
2018-03-21T05:22:21.744Z,68.72
2018-03-21T05:24:49.434Z,69.07
2018-03-21T05:27:17.098Z,69.01
2018-03-21T05:29:44.806Z,69.06
2018-03-21T05:32:12.476Z,68.74
2018-03-21T05:34:40.190Z,68.31
2018-03-21T05:37:07.860Z,68.04
2018-03-21T05:39:35.537Z,68.46
2018-03-21T05:42:03.232Z,68.26
2018-03-21T05:44:30.896Z,67.90
2018-03-21T05:46:58.590Z,68.70
2018-03-21T05:49:26.252Z,68.28
2018-03-21T05:51:53.973Z,68.50
2018-03-21T05:54:21.633Z,68.42
2018-03-21T05:56:49.328Z,68.44
2018-03-21T05:59:17.012Z,68.10
2018-03-21T06:01:44.680Z,68.27
2018-03-21T06:04:12.368Z,69.13
2018-03-21T06:06:40.035Z,69.32
2018-03-21T06:09:07.757Z,69.00
2018-03-21T06:11:35.415Z,69.10
2018-03-21T06:14:03.094Z,69.54
2018-03-21T06:16:30.860Z,69.79
2018-03-21T06:18:58.536Z,69.62
2018-03-21T06:21:26.233Z,69.10
2018-03-21T06:23:53.915Z,68.74
2018-03-21T06:26:21.660Z,69.11
2018-03-21T06:28:49.331Z,68.60
2018-03-21T06:31:17.011Z,68.57
2018-03-21T06:33:44.693Z,69.54
2018-03-21T06:36:12.361Z,69.41
2018-03-21T06:38:40.056Z,68.81
2018-03-21T06:41:07.736Z,69.33
2018-03-21T06:43:35.465Z,68.96
2018-03-21T06:46:03.132Z,68.40
2018-03-21T06:48:30.801Z,68.17
2018-03-21T06:50:58.500Z,67.74
2018-03-21T06:53:26.174Z,67.94
2018-03-21T06:55:53.882Z,68.29
2018-03-21T06:58:21.555Z,67.90
2018-03-21T07:00:49.392Z,67.14
2018-03-21T07:03:17.060Z,67.89
2018-03-21T07:05:44.739Z,67.58
2018-03-21T07:08:12.447Z,67.35
2018-03-21T07:10:40.111Z,67.04
2018-03-21T07:13:07.807Z,67.14
2018-03-21T07:15:47.143Z,66.22
2018-03-21T07:18:14.836Z,65.72
2018-03-21T07:20:42.491Z,65.99
2018-03-21T07:23:10.484Z,65.67
2018-03-21T07:25:38.132Z,65.63
2018-03-21T07:28:05.822Z,65.77
2018-03-21T07:30:33.509Z,64.14
2018-03-21T07:33:01.173Z,64.09
2018-03-21T07:35:28.873Z,64.82
2018-03-21T07:37:56.545Z,64.93
2018-03-21T07:40:24.247Z,64.47
2018-03-21T07:42:51.949Z,63.97
2018-03-21T07:45:19.642Z,63.12
2018-03-21T07:47:47.320Z,62.64
2018-03-21T07:50:15.027Z,61.86
2018-03-21T07:52:42.692Z,62.32
2018-03-21T07:55:10.357Z,61.33
2018-03-21T07:57:38.036Z,61.05
2018-03-21T08:00:05.781Z,60.44
2018-03-21T08:02:33.659Z,59.70
2018-03-21T08:05:01.321Z,59.72
2018-03-21T08:07:28.988Z,59.44
2018-03-21T08:09:56.680Z,59.41
2018-03-21T08:12:24.340Z,58.67
2018-03-21T08:14:52.265Z,58.56
2018-03-21T08:17:19.926Z,58.67
2018-03-21T08:19:47.588Z,58.41
2018-03-21T08:22:15.267Z,57.93
2018-03-21T08:24:42.932Z,58.24
2018-03-21T08:27:10.623Z,57.88
2018-03-21T08:29:38.277Z,57.54
2018-03-21T08:32:06.014Z,56.43
2018-03-21T08:34:33.668Z,56.98
2018-03-21T08:37:01.346Z,57.07
2018-03-21T08:39:29.023Z,55.98
2018-03-21T08:41:56.689Z,55.88
2018-03-21T08:44:24.391Z,58.87
2018-03-21T08:46:52.124Z,55.34
2018-03-21T08:49:19.940Z,55.46
2018-03-21T08:51:47.603Z,54.86
2018-03-21T08:54:15.255Z,54.10
2018-03-21T08:56:42.937Z,53.47
2018-03-21T08:59:10.603Z,53.87
2018-03-21T09:01:38.292Z,55.13
2018-03-21T09:04:05.947Z,52.26
2018-03-21T09:06:34.029Z,52.46
2018-03-21T09:09:01.960Z,53.13
2018-03-21T09:11:29.632Z,54.17
2018-03-21T09:13:57.348Z,53.87
2018-03-21T09:16:25.852Z,52.66
2018-03-21T09:18:53.542Z,52.64
2018-03-21T09:21:21.217Z,51.60
2018-03-21T09:23:49.276Z,50.67
2018-03-21T09:26:16.952Z,53.08
2018-03-21T09:28:44.629Z,51.97
2018-03-21T09:31:12.309Z,53.12
2018-03-21T09:33:39.980Z,52.38
2018-03-21T09:36:07.660Z,52.14
2018-03-21T09:38:35.321Z,50.26
2018-03-21T09:41:03.312Z,50.48
2018-03-21T09:43:30.968Z,51.43
2018-03-21T09:45:58.640Z,50.79
2018-03-21T09:48:26.359Z,51.78
2018-03-21T09:50:54.021Z,50.33
2018-03-21T09:53:21.756Z,49.40
2018-03-21T09:55:49.478Z,50.21
2018-03-21T09:58:17.364Z,49.49
2018-03-21T10:00:45.088Z,49.05
2018-03-21T10:03:12.723Z,48.62
2018-03-21T10:05:40.401Z,50.17
2018-03-21T10:08:08.066Z,49.75
2018-03-21T10:10:35.751Z,48.84
2018-03-21T10:13:03.662Z,48.35
2018-03-21T10:15:31.376Z,47.93
2018-03-21T10:17:59.048Z,47.99
2018-03-21T10:20:26.707Z,49.34
2018-03-21T10:22:54.402Z,50.17
2018-03-21T10:25:22.100Z,51.44
2018-03-21T10:27:49.781Z,50.76
2018-03-21T10:30:17.448Z,47.87
2018-03-21T10:32:45.131Z,47.77
2018-03-21T10:35:12.802Z,48.17
2018-03-21T10:37:40.742Z,48.65
2018-03-21T10:40:08.403Z,48.25
2018-03-21T10:42:36.084Z,45.50
2018-03-21T10:45:03.800Z,47.66
2018-03-21T10:47:31.471Z,46.81
2018-03-21T10:49:59.167Z,47.56
2018-03-21T10:52:38.776Z,48.08
2018-03-21T10:54:55.133Z,49.80
2018-03-21T10:57:22.797Z,46.37
2018-03-21T10:59:50.491Z,46.11
2018-03-21T11:02:18.177Z,47.28
2018-03-21T11:04:46.604Z,46.89
2018-03-21T11:07:14.295Z,46.01
2018-03-21T11:09:41.965Z,46.45
2018-03-21T11:12:09.678Z,45.74
2018-03-21T11:14:37.336Z,45.67
2018-03-21T11:17:05.413Z,44.50
2018-03-21T11:19:33.092Z,44.17
2018-03-21T11:22:00.778Z,44.74
2018-03-21T11:24:28.467Z,46.25
2018-03-21T11:26:56.135Z,45.13
2018-03-21T11:29:23.940Z,46.09
2018-03-21T11:31:51.603Z,45.52
2018-03-21T11:34:19.265Z,44.31
2018-03-21T11:36:46.959Z,44.93
2018-03-21T11:39:14.636Z,46.07
2018-03-21T11:41:42.324Z,45.47
2018-03-21T11:44:09.912Z,47.43
2018-03-21T11:46:37.777Z,46.29
2018-03-21T11:49:05.383Z,45.28
2018-03-21T11:51:33.051Z,47.69
2018-03-21T11:54:00.655Z,42.95
2018-03-21T11:56:28.299Z,41.62
2018-03-21T11:58:55.883Z,43.33
2018-03-21T12:01:23.472Z,42.14
2018-03-21T12:03:51.092Z,39.93
2018-03-21T12:06:18.693Z,41.53
2018-03-21T12:08:46.297Z,41.48
2018-03-21T12:11:13.996Z,39.38
2018-03-21T12:13:41.589Z,38.27
2018-03-21T12:16:10.952Z,35.84
2018-03-21T12:18:38.548Z,37.40
2018-03-21T12:21:06.185Z,40.81
2018-03-21T12:23:35.301Z,40.05
2018-03-21T12:26:03.563Z,33.59
2018-03-21T12:28:31.181Z,36.51
2018-03-21T12:30:58.787Z,32.90
2018-03-21T12:33:26.409Z,33.90
2018-03-21T12:35:54.016Z,34.97
2018-03-21T12:38:21.629Z,33.07
2018-03-21T12:40:49.209Z,36.22
2018-03-21T12:43:16.984Z,33.91
2018-03-21T12:45:44.565Z,32.49
2018-03-21T12:48:12.162Z,32.23
2018-03-21T12:50:39.773Z,30.25
2018-03-21T12:53:07.543Z,31.22
2018-03-21T12:55:35.231Z,28.01
2018-03-21T12:58:02.791Z,26.59
2018-03-21T13:00:30.833Z,26.02
2018-03-21T13:02:58.425Z,25.09
2018-03-21T13:05:26.021Z,25.99
2018-03-21T13:07:53.645Z,23.60
2018-03-21T13:10:21.239Z,24.89
2018-03-21T13:12:48.855Z,22.62
2018-03-21T13:15:16.446Z,24.51
2018-03-21T13:17:44.281Z,23.82
2018-03-21T13:20:11.869Z,25.01
2018-03-21T13:22:39.465Z,25.66
2018-03-21T13:25:07.080Z,21.91
2018-03-21T13:27:34.716Z,21.80
2018-03-21T13:30:02.335Z,20.34
2018-03-21T13:32:29.929Z,21.24
2018-03-21T13:34:57.839Z,21.15
2018-03-21T13:37:37.111Z,19.88
2018-03-21T13:40:05.651Z,20.32
2018-03-21T13:42:34.904Z,22.29
2018-03-21T13:45:02.504Z,21.53
2018-03-21T13:47:32.053Z,22.32
2018-03-21T13:49:59.634Z,23.34
2018-03-21T13:52:27.269Z,22.50
2018-03-21T13:54:54.860Z,22.82
2018-03-21T13:57:22.646Z,24.73
2018-03-21T13:59:50.232Z,26.67
2018-03-21T14:02:17.817Z,25.73
2018-03-21T14:04:45.427Z,24.29
2018-03-21T14:07:13.021Z,23.53
2018-03-21T14:09:40.629Z,24.92
2018-03-21T14:12:08.232Z,24.52
2018-03-21T14:14:35.864Z,25.62
2018-03-21T14:17:03.477Z,27.45
2018-03-21T14:19:31.071Z,26.99
2018-03-21T14:22:01.000Z,28.11
2018-03-21T14:24:28.597Z,28.49
2018-03-21T14:26:56.202Z,30.53
2018-03-21T14:29:23.892Z,30.50
2018-03-21T14:31:51.755Z,30.62
2018-03-21T14:34:19.347Z,30.80
2018-03-21T14:36:46.980Z,31.38
2018-03-21T14:39:14.600Z,31.61
2018-03-21T14:41:42.191Z,31.96
2018-03-21T14:44:09.811Z,32.04
2018-03-21T14:46:37.399Z,33.74
2018-03-21T14:49:05.175Z,32.37
2018-03-21T14:51:32.755Z,31.55
2018-03-21T14:54:00.339Z,31.68
2018-03-21T14:56:27.953Z,31.85
2018-03-21T14:58:55.551Z,31.60
2018-03-21T15:01:23.161Z,31.81
2018-03-21T15:03:50.966Z,31.61
2018-03-21T15:06:19.060Z,31.35
2018-03-21T15:08:46.653Z,31.54
2018-03-21T15:11:14.237Z,31.89
2018-03-21T15:13:41.855Z,32.80
2018-03-21T15:16:09.520Z,34.00
2018-03-21T15:18:37.724Z,33.46
2018-03-21T15:21:05.629Z,32.73
2018-03-21T15:23:33.393Z,33.10
2018-03-21T15:26:00.979Z,32.80
2018-03-21T15:28:28.613Z,33.26
2018-03-21T15:30:56.269Z,33.72
2018-03-21T15:33:23.864Z,34.50
2018-03-21T15:35:51.821Z,32.96
2018-03-21T15:38:19.432Z,34.02
2018-03-21T15:40:47.328Z,34.66
2018-03-21T15:43:14.991Z,34.55
2018-03-21T15:45:42.658Z,34.87
2018-03-21T15:48:10.279Z,34.31
2018-03-21T15:50:37.969Z,33.95
2018-03-21T15:53:05.591Z,33.66
2018-03-21T15:55:34.447Z,34.43
2018-03-21T15:58:02.348Z,33.72
2018-03-21T16:00:30.018Z,34.39
2018-03-21T16:02:57.696Z,34.11
2018-03-21T16:05:25.385Z,34.11
2018-03-21T16:07:53.053Z,34.68
2018-03-21T16:10:20.753Z,34.78
2018-03-21T16:12:48.432Z,35.13
2018-03-21T16:15:16.118Z,34.33
2018-03-21T16:17:43.810Z,34.53
2018-03-21T16:20:11.536Z,34.73
2018-03-21T16:22:39.208Z,35.17
2018-03-21T16:25:07.236Z,34.97
2018-03-21T16:27:35.066Z,35.09
2018-03-21T16:30:04.475Z,35.43
2018-03-21T16:32:32.640Z,35.57
2018-03-21T16:35:00.317Z,35.46
2018-03-21T16:37:27.984Z,36.42
2018-03-21T16:39:56.237Z,36.05
2018-03-21T16:42:23.907Z,35.88
2018-03-21T16:44:51.613Z,36.27
2018-03-21T16:47:19.334Z,35.79
2018-03-21T16:49:47.225Z,35.06
2018-03-21T16:52:14.902Z,35.63
2018-03-21T16:54:42.743Z,35.63
2018-03-21T16:57:10.412Z,36.00
2018-03-21T16:59:38.565Z,35.50
2018-03-21T17:02:06.232Z,35.94
2018-03-21T17:04:33.896Z,35.56
2018-03-21T17:07:01.597Z,35.37
2018-03-21T17:09:29.719Z,35.11
2018-03-21T17:11:57.410Z,35.08
2018-03-21T17:14:25.088Z,35.01
2018-03-21T17:16:52.869Z,34.93
2018-03-21T17:19:20.536Z,35.01
2018-03-21T17:21:48.257Z,34.73
2018-03-21T17:24:15.964Z,34.87
2018-03-21T17:26:45.490Z,34.79
2018-03-21T17:29:16.142Z,34.15
2018-03-21T17:31:45.380Z,34.15
2018-03-21T17:34:15.428Z,34.44
2018-03-21T17:36:43.477Z,34.19
2018-03-21T17:39:11.404Z,34.46
2018-03-21T17:41:39.070Z,34.82
2018-03-21T17:44:06.757Z,33.96
2018-03-21T17:46:34.465Z,34.52
2018-03-21T17:49:02.132Z,34.95
2018-03-21T17:51:29.817Z,34.17
2018-03-21T17:53:57.488Z,34.26
2018-03-21T17:56:25.173Z,33.73
2018-03-21T17:58:52.842Z,33.52
2018-03-21T18:01:20.870Z,33.39
2018-03-21T18:03:48.534Z,32.91
2018-03-21T18:06:16.227Z,32.43
2018-03-21T18:08:43.920Z,32.99
2018-03-21T18:11:11.591Z,32.68
2018-03-21T18:13:39.283Z,32.74
2018-03-21T18:16:06.883Z,32.60
2018-03-21T18:18:34.962Z,32.97
2018-03-21T18:21:02.637Z,33.03
2018-03-21T18:23:30.340Z,33.68
2018-03-21T18:25:58.044Z,32.87
2018-03-21T18:28:25.711Z,32.70
2018-03-21T18:30:53.412Z,32.45
2018-03-21T18:33:21.071Z,32.98
2018-03-21T18:35:48.986Z,32.61
2018-03-21T18:38:16.657Z,32.95
2018-03-21T18:40:44.315Z,33.96
2018-03-21T18:43:11.997Z,33.93
2018-03-21T18:45:39.664Z,33.27
2018-03-21T18:48:08.133Z,32.96
2018-03-21T18:50:35.810Z,33.16
2018-03-21T18:53:03.505Z,33.65
2018-03-21T18:55:31.936Z,33.77
2018-03-21T18:57:59.604Z,34.80
2018-03-21T19:00:27.294Z,35.31
2018-03-21T19:02:54.960Z,35.85
2018-03-21T19:05:22.652Z,34.46
2018-03-21T19:07:50.330Z,36.48
2018-03-21T19:10:18.006Z,36.14
2018-03-21T19:12:45.762Z,35.63
2018-03-21T19:15:13.396Z,37.46
2018-03-21T19:17:41.179Z,36.92
2018-03-21T19:20:08.835Z,37.62
2018-03-21T19:22:36.516Z,36.30
2018-03-21T19:25:04.186Z,36.96
2018-03-21T19:27:31.876Z,36.72
2018-03-21T19:29:59.545Z,37.92
2018-03-21T19:32:27.232Z,38.07
2018-03-21T19:34:54.908Z,39.13
2018-03-21T19:37:22.622Z,39.35
2018-03-21T19:39:50.306Z,38.91
2018-03-21T19:42:18.000Z,39.02
2018-03-21T19:44:45.664Z,39.16
2018-03-21T19:47:13.347Z,39.88
2018-03-21T19:49:41.020Z,39.70
2018-03-21T19:52:08.713Z,40.29
2018-03-21T19:54:36.376Z,40.09
2018-03-21T19:57:04.358Z,40.35
2018-03-21T19:59:32.025Z,41.24
2018-03-21T20:01:59.703Z,40.97
2018-03-21T20:04:27.391Z,41.01
2018-03-21T20:06:55.061Z,41.04
2018-03-21T20:09:22.752Z,40.96
2018-03-21T20:11:50.422Z,40.89
2018-03-21T20:14:18.416Z,40.94
2018-03-21T20:16:46.156Z,41.14
2018-03-21T20:19:13.824Z,41.51
2018-03-21T20:21:41.522Z,41.69
2018-03-21T20:24:09.191Z,41.99
2018-03-21T20:26:36.885Z,42.01
2018-03-21T20:29:04.550Z,41.38
2018-03-21T20:31:32.253Z,41.70
2018-03-21T20:33:59.931Z,42.12
2018-03-21T20:36:27.667Z,41.94
2018-03-21T20:38:55.346Z,42.09
2018-03-21T20:41:23.021Z,42.27
2018-03-21T20:43:50.707Z,42.58
2018-03-21T20:46:18.374Z,42.67
2018-03-21T20:48:46.078Z,43.18
2018-03-21T20:51:13.737Z,43.85
2018-03-21T20:53:41.762Z,44.04
2018-03-21T20:56:09.441Z,44.77
2018-03-21T20:58:37.128Z,44.74
2018-03-21T21:01:04.816Z,45.22
2018-03-21T21:03:32.488Z,45.08
2018-03-21T21:06:00.190Z,45.58
2018-03-21T21:08:27.862Z,45.84
2018-03-21T21:10:55.899Z,45.44
2018-03-21T21:13:23.575Z,45.65
2018-03-21T21:15:51.249Z,46.06
2018-03-21T21:18:18.950Z,45.73
2018-03-21T21:20:46.620Z,45.98
2018-03-21T21:23:14.315Z,46.50
2018-03-21T21:25:41.975Z,46.24
2018-03-21T21:28:09.685Z,45.78
2018-03-21T21:30:37.352Z,46.66
2018-03-21T21:33:05.019Z,46.55
2018-03-21T21:35:32.705Z,46.54
2018-03-21T21:38:00.371Z,47.04
2018-03-21T21:40:28.247Z,47.48
2018-03-21T21:42:55.921Z,47.35
2018-03-21T21:45:23.588Z,47.65
2018-03-21T21:47:51.399Z,47.90
2018-03-21T21:50:19.068Z,47.68
2018-03-21T21:52:46.760Z,47.71
2018-03-21T21:55:14.418Z,48.09
2018-03-21T21:57:42.134Z,48.64
2018-03-21T22:00:09.806Z,48.31
2018-03-21T22:02:37.470Z,48.79
2018-03-21T22:05:05.160Z,48.08
2018-03-21T22:07:32.832Z,48.32
2018-03-21T22:10:00.520Z,48.86
2018-03-21T22:12:28.188Z,49.29
2018-03-21T22:14:56.129Z,48.60
2018-03-21T22:17:23.797Z,48.25
2018-03-21T22:19:51.462Z,47.88
2018-03-21T22:22:19.144Z,47.76
2018-03-21T22:24:46.815Z,48.30
2018-03-21T22:27:14.492Z,48.89
2018-03-21T22:29:42.148Z,49.22
2018-03-21T22:32:10.080Z,48.66
2018-03-21T22:34:37.745Z,49.27
2018-03-21T22:37:05.406Z,49.13
2018-03-21T22:39:33.100Z,49.66
2018-03-21T22:42:00.764Z,49.87
2018-03-21T22:44:28.658Z,49.49
2018-03-21T22:46:56.326Z,49.76
2018-03-21T22:49:24.024Z,49.24
2018-03-21T22:51:51.701Z,48.71
2018-03-21T22:54:19.416Z,49.42
2018-03-21T22:56:47.081Z,48.85
2018-03-21T22:59:14.750Z,48.36
2018-03-21T23:01:42.447Z,48.70
2018-03-21T23:04:10.112Z,49.26
2018-03-21T23:06:37.814Z,49.21
2018-03-21T23:09:05.533Z,49.52
2018-03-21T23:11:33.194Z,49.48
2018-03-21T23:14:00.888Z,49.67
2018-03-21T23:16:28.560Z,49.59
2018-03-21T23:18:56.484Z,48.95
2018-03-21T23:21:24.140Z,49.25
2018-03-21T23:23:51.810Z,50.14
2018-03-21T23:26:19.495Z,49.72
2018-03-21T23:28:47.159Z,50.02
2018-03-21T23:31:14.841Z,49.76
2018-03-21T23:33:42.521Z,49.85
2018-03-21T23:36:10.525Z,50.59
2018-03-21T23:38:38.209Z,50.19
2018-03-21T23:41:05.873Z,49.95
2018-03-21T23:43:33.569Z,50.39
2018-03-21T23:46:01.250Z,50.38
2018-03-21T23:48:28.948Z,50.51
2018-03-21T23:50:56.626Z,51.04
2018-03-21T23:53:24.480Z,50.24
2018-03-21T23:55:52.148Z,50.54
2018-03-21T23:58:19.820Z,51.06
